createdAt,value
2019-02-01T00:01:07.736Z,-0.37
2019-02-01T00:04:10.667Z,-0.34
2019-02-01T00:07:13.587Z,-0.38
2019-02-01T00:10:16.980Z,-0.33
2019-02-01T00:13:20.864Z,-0.35
2019-02-01T00:16:26.210Z,-0.34
2019-02-01T00:19:29.715Z,-0.28
2019-02-01T00:22:32.653Z,-0.21
2019-02-01T00:25:36.149Z,-0.12
2019-02-01T00:28:39.516Z,-0.22
2019-02-01T00:31:42.823Z,-0.22
2019-02-01T00:34:47.416Z,-0.14
2019-02-01T00:37:50.728Z,-0.07
2019-02-01T00:40:53.659Z,-0.11
2019-02-01T00:43:57.163Z,-0.18
2019-02-01T00:47:00.399Z,-0.03
2019-02-01T00:50:04.860Z,-0.14
2019-02-01T00:53:08.114Z,-0.16
2019-02-01T00:56:12.196Z,-0.11
2019-02-01T00:59:15.420Z,-0.11
2019-02-01T01:02:18.751Z,-0.04
2019-02-01T01:05:21.957Z,-0.12
2019-02-01T01:08:25.371Z,-0.07
2019-02-01T01:11:28.308Z,0.07
2019-02-01T01:14:31.576Z,-0.02
2019-02-01T01:17:34.811Z,-0.07
2019-02-01T01:20:37.923Z,-0.03
2019-02-01T01:23:40.862Z,-0.06
2019-02-01T01:26:43.763Z,-0.03
2019-02-01T01:29:46.691Z,0.05
2019-02-01T01:32:50.434Z,0.06
2019-02-01T01:35:53.766Z,0.03
2019-02-01T01:38:58.915Z,0.01
2019-02-01T01:42:02.129Z,0.06
2019-02-01T01:45:13.131Z,0.12
2019-02-01T01:48:16.447Z,0.17
2019-02-01T01:51:19.372Z,0.14
2019-02-01T01:54:22.997Z,0.17
2019-02-01T01:57:25.914Z,0.10
2019-02-01T02:00:31.729Z,0.22
2019-02-01T02:03:34.640Z,0.16
2019-02-01T02:06:37.590Z,0.21
2019-02-01T02:09:40.848Z,0.19
2019-02-01T02:12:44.059Z,0.19
2019-02-01T02:15:49.039Z,0.23
2019-02-01T02:18:52.280Z,0.15
2019-02-01T02:21:55.834Z,0.19
2019-02-01T02:24:59.069Z,0.19
2019-02-01T02:28:02.323Z,0.23
2019-02-01T02:31:06.088Z,0.27
2019-02-01T02:34:11.695Z,0.30
2019-02-01T02:37:14.935Z,0.31
2019-02-01T02:40:20.360Z,0.31
2019-02-01T02:43:23.581Z,0.30
2019-02-01T02:46:26.850Z,0.29
2019-02-01T02:49:30.456Z,0.32
2019-02-01T02:52:33.469Z,0.34
2019-02-01T02:55:37.173Z,0.37
2019-02-01T02:58:40.812Z,0.30
2019-02-01T03:01:44.285Z,0.32
2019-02-01T03:04:48.267Z,0.33
2019-02-01T03:07:51.591Z,0.31
2019-02-01T03:10:54.979Z,0.36
2019-02-01T03:13:58.255Z,0.40
2019-02-01T03:17:01.176Z,0.33
2019-02-01T03:20:05.690Z,0.35
2019-02-01T03:23:08.623Z,0.31
2019-02-01T03:26:12.620Z,0.35
2019-02-01T03:29:16.100Z,0.40
2019-02-01T03:32:19.359Z,0.40
2019-02-01T03:35:22.936Z,0.37
2019-02-01T03:38:25.925Z,0.41
2019-02-01T03:41:29.277Z,0.38
2019-02-01T03:44:32.874Z,0.39
2019-02-01T03:47:36.458Z,0.47
2019-02-01T03:50:39.781Z,0.47
2019-02-01T03:53:43.621Z,0.46
2019-02-01T03:56:46.854Z,0.51
2019-02-01T03:59:50.144Z,0.51
2019-02-01T04:02:53.288Z,0.52
2019-02-01T04:05:57.779Z,0.58
2019-02-01T04:09:01.071Z,0.62
2019-02-01T04:12:05.695Z,0.59
2019-02-01T04:15:11.522Z,0.60
2019-02-01T04:18:14.596Z,0.61
2019-02-01T04:21:17.857Z,0.63
2019-02-01T04:24:20.759Z,0.72
2019-02-01T04:27:24.320Z,0.74
2019-02-01T04:30:27.356Z,0.83
2019-02-01T04:33:30.979Z,0.79
2019-02-01T04:36:36.505Z,0.89
2019-02-01T04:39:39.486Z,0.84
2019-02-01T04:42:43.079Z,0.80
2019-02-01T04:45:46.659Z,0.80
2019-02-01T04:48:49.608Z,0.76
2019-02-01T04:51:53.095Z,0.71
2019-02-01T04:54:56.007Z,0.75
2019-02-01T04:57:59.967Z,0.75
2019-02-01T05:01:03.203Z,0.75
2019-02-01T05:04:06.143Z,0.86
2019-02-01T05:07:09.143Z,0.82
2019-02-01T05:10:14.642Z,0.83
2019-02-01T05:13:17.673Z,0.78
2019-02-01T05:16:20.924Z,0.81
2019-02-01T05:19:23.867Z,0.80
2019-02-01T05:22:27.261Z,0.83
2019-02-01T05:25:30.188Z,0.81
2019-02-01T05:28:33.166Z,0.83
2019-02-01T05:31:36.711Z,0.81
2019-02-01T05:34:40.003Z,0.88
2019-02-01T05:37:43.925Z,0.86
2019-02-01T05:40:46.888Z,0.87
2019-02-01T05:43:50.505Z,0.87
2019-02-01T05:46:53.419Z,0.88
2019-02-01T05:49:56.634Z,0.89
2019-02-01T05:53:00.467Z,0.91
2019-02-01T05:56:03.725Z,0.94
2019-02-01T05:59:07.142Z,0.97
2019-02-01T06:02:10.080Z,1.00
2019-02-01T06:05:14.121Z,1.02
2019-02-01T06:08:17.078Z,1.04
2019-02-01T06:11:20.369Z,1.03
2019-02-01T06:14:23.739Z,1.02
2019-02-01T06:17:26.988Z,1.12
2019-02-01T06:20:40.002Z,1.14
2019-02-01T06:23:36.725Z,1.16
2019-02-01T06:26:40.636Z,1.23
2019-02-01T06:29:43.555Z,1.25
2019-02-01T06:32:47.121Z,1.47
2019-02-01T06:35:50.331Z,1.42
2019-02-01T06:38:53.751Z,1.42
2019-02-01T06:41:57.063Z,1.26
2019-02-01T06:44:59.990Z,1.47
2019-02-01T06:48:04.376Z,1.35
2019-02-01T06:51:26.887Z,1.52
2019-02-01T06:54:30.491Z,1.49
2019-02-01T06:57:34.420Z,1.54
2019-02-01T07:00:41.530Z,1.65
2019-02-01T07:04:02.448Z,1.82
2019-02-01T07:07:27.719Z,1.66
2019-02-01T07:10:46.529Z,1.60
2019-02-01T07:14:15.196Z,1.58
2019-02-01T07:17:55.738Z,1.57
2019-02-01T07:21:21.646Z,1.61
2019-02-01T07:24:37.801Z,4.84
2019-02-01T07:27:51.353Z,3.97
2019-02-01T07:31:05.400Z,2.43
2019-02-01T07:34:10.012Z,1.99
2019-02-01T07:37:13.267Z,1.87
2019-02-01T07:40:16.573Z,1.89
2019-02-01T07:43:19.770Z,1.88
2019-02-01T07:46:22.781Z,1.85
2019-02-01T07:49:29.103Z,1.94
2019-02-01T07:52:32.030Z,1.88
2019-02-01T07:55:35.306Z,1.91
2019-02-01T07:58:38.277Z,1.75
2019-02-01T08:01:41.246Z,1.67
2019-02-01T08:04:44.524Z,1.73
2019-02-01T08:07:47.720Z,1.70
2019-02-01T08:10:50.743Z,1.73
2019-02-01T08:13:54.110Z,1.74
2019-02-01T08:16:57.016Z,1.71
2019-02-01T08:20:00.287Z,1.77
2019-02-01T08:23:03.190Z,1.84
2019-02-01T08:26:06.583Z,6.85
2019-02-01T08:29:09.520Z,8.07
2019-02-01T08:32:12.749Z,4.17
2019-02-01T08:35:17.947Z,2.83
2019-02-01T08:38:20.851Z,2.51
2019-02-01T08:41:23.890Z,2.51
2019-02-01T08:44:26.789Z,2.26
2019-02-01T08:47:29.812Z,2.26
2019-02-01T08:50:32.741Z,2.21
2019-02-01T08:53:35.974Z,2.18
2019-02-01T08:56:38.916Z,2.07
2019-02-01T08:59:42.157Z,2.22
2019-02-01T09:02:45.080Z,2.20
2019-02-01T09:05:48.035Z,2.24
2019-02-01T09:08:50.942Z,2.28
2019-02-01T09:11:53.871Z,2.17
2019-02-01T09:14:56.774Z,2.14
2019-02-01T09:18:00.671Z,2.14
2019-02-01T09:21:04.066Z,2.18
2019-02-01T09:24:07.001Z,2.24
2019-02-01T09:27:09.925Z,6.44
2019-02-01T09:30:16.310Z,4.12
2019-02-01T09:33:20.680Z,6.96
2019-02-01T09:36:23.609Z,9.31
2019-02-01T09:39:27.110Z,5.57
2019-02-01T09:42:30.008Z,4.56
2019-02-01T09:45:33.318Z,3.79
2019-02-01T09:48:36.245Z,3.74
2019-02-01T09:51:39.776Z,3.55
2019-02-01T09:54:42.995Z,3.57
2019-02-01T09:57:46.148Z,3.40
2019-02-01T10:00:49.890Z,3.29
2019-02-01T10:03:53.115Z,3.44
2019-02-01T10:06:56.139Z,3.31
2019-02-01T10:09:59.379Z,3.29
2019-02-01T10:13:02.550Z,3.33
2019-02-01T10:16:05.984Z,3.27
2019-02-01T10:19:08.893Z,3.68
2019-02-01T10:22:13.578Z,3.59
2019-02-01T10:25:18.288Z,3.75
2019-02-01T10:28:21.479Z,4.65
2019-02-01T10:31:25.452Z,5.28
2019-02-01T10:34:28.688Z,4.43
2019-02-01T10:37:32.350Z,3.89
2019-02-01T10:40:35.284Z,3.64
2019-02-01T10:43:38.527Z,3.64
2019-02-01T10:46:41.771Z,3.52
2019-02-01T10:49:45.082Z,3.67
2019-02-01T10:52:48.488Z,7.45
2019-02-01T10:55:51.758Z,6.68
2019-02-01T10:58:55.052Z,4.51
2019-02-01T11:01:57.982Z,5.01
2019-02-01T11:05:00.914Z,4.54
2019-02-01T11:08:04.825Z,4.81
2019-02-01T11:11:08.360Z,4.37
2019-02-01T11:14:11.296Z,5.19
2019-02-01T11:17:14.208Z,4.42
2019-02-01T11:20:19.373Z,4.52
2019-02-01T11:23:22.272Z,3.95
2019-02-01T11:26:25.597Z,4.64
2019-02-01T11:29:28.500Z,8.67
2019-02-01T11:32:31.715Z,6.36
2019-02-01T11:35:34.644Z,4.97
2019-02-01T11:38:37.910Z,4.87
2019-02-01T11:41:41.072Z,4.48
2019-02-01T11:44:46.637Z,4.34
2019-02-01T11:47:48.931Z,4.29
2019-02-01T11:50:51.861Z,4.17
2019-02-01T11:53:55.504Z,4.31
2019-02-01T11:56:58.696Z,4.25
2019-02-01T12:00:02.136Z,4.19
2019-02-01T12:03:05.740Z,4.16
2019-02-01T12:06:08.970Z,4.15
2019-02-01T12:09:12.182Z,4.43
2019-02-01T12:12:15.204Z,4.63
2019-02-01T12:15:18.532Z,4.66
2019-02-01T12:18:22.280Z,4.66
2019-02-01T12:21:25.201Z,4.84
2019-02-01T12:24:28.131Z,4.57
2019-02-01T12:27:31.344Z,4.58
2019-02-01T12:30:34.742Z,4.45
2019-02-01T12:33:38.163Z,4.72
2019-02-01T12:36:41.121Z,4.80
2019-02-01T12:39:44.415Z,4.89
2019-02-01T12:42:50.292Z,5.20
2019-02-01T12:45:52.881Z,5.57
2019-02-01T12:48:55.794Z,5.34
2019-02-01T12:51:58.733Z,4.92
2019-02-01T12:55:02.413Z,4.84
2019-02-01T12:58:05.645Z,4.93
2019-02-01T13:01:08.678Z,4.85
2019-02-01T13:04:11.643Z,4.78
2019-02-01T13:07:14.600Z,4.94
2019-02-01T13:10:17.952Z,4.70
2019-02-01T13:13:21.037Z,4.72
2019-02-01T13:16:24.003Z,4.65
2019-02-01T13:19:27.482Z,4.48
2019-02-01T13:22:30.433Z,4.60
2019-02-01T13:25:33.347Z,4.77
2019-02-01T13:28:36.952Z,4.57
2019-02-01T13:31:40.172Z,4.65
2019-02-01T13:34:43.550Z,4.59
2019-02-01T13:37:46.757Z,4.52
2019-02-01T13:40:50.035Z,4.47
2019-02-01T13:43:52.956Z,4.45
2019-02-01T13:46:56.190Z,4.35
2019-02-01T13:49:59.143Z,4.42
2019-02-01T13:53:02.507Z,4.29
2019-02-01T13:56:05.700Z,4.34
2019-02-01T13:59:10.755Z,4.29
2019-02-01T14:02:13.689Z,4.18
2019-02-01T14:05:16.651Z,4.18
2019-02-01T14:08:19.894Z,4.30
2019-02-01T14:11:22.890Z,4.27
2019-02-01T14:14:25.812Z,4.18
2019-02-01T14:17:29.054Z,4.16
2019-02-01T14:20:31.981Z,4.14
2019-02-01T14:23:46.821Z,4.11
2019-02-01T14:26:45.841Z,4.00
2019-02-01T14:29:49.011Z,4.30
2019-02-01T14:32:51.933Z,4.14
2019-02-01T14:35:56.116Z,4.06
2019-02-01T14:39:01.065Z,3.92
2019-02-01T14:42:05.847Z,3.89
2019-02-01T14:45:13.462Z,3.97
2019-02-01T14:48:19.328Z,4.12
2019-02-01T14:51:22.656Z,4.01
2019-02-01T14:54:25.705Z,3.92
2019-02-01T14:57:28.727Z,3.83
2019-02-01T15:00:31.936Z,3.83
2019-02-01T15:03:35.001Z,3.83
2019-02-01T15:06:37.926Z,3.63
2019-02-01T15:09:41.449Z,3.57
2019-02-01T15:12:45.190Z,3.49
2019-02-01T15:15:48.423Z,3.48
2019-02-01T15:18:51.379Z,3.45
2019-02-01T15:21:54.362Z,3.48
2019-02-01T15:24:57.537Z,3.47
2019-02-01T15:28:00.525Z,3.28
2019-02-01T15:31:03.825Z,3.11
2019-02-01T15:34:07.339Z,3.06
2019-02-01T15:37:10.284Z,3.15
2019-02-01T15:40:26.024Z,2.99
2019-02-01T15:43:29.485Z,3.09
2019-02-01T15:46:33.142Z,3.10
2019-02-01T15:49:36.804Z,3.06
2019-02-01T15:52:40.016Z,2.98
2019-02-01T15:55:42.919Z,2.89
2019-02-01T15:58:46.599Z,2.89
2019-02-01T16:01:49.847Z,2.75
2019-02-01T16:04:52.710Z,2.71
2019-02-01T16:07:55.667Z,2.62
2019-02-01T16:10:58.572Z,2.61
2019-02-01T16:14:01.505Z,2.51
2019-02-01T16:17:04.610Z,2.49
2019-02-01T16:20:20.513Z,2.54
2019-02-01T16:23:23.513Z,2.47
2019-02-01T16:26:26.532Z,2.42
2019-02-01T16:29:29.712Z,2.45
2019-02-01T16:32:32.708Z,2.40
2019-02-01T16:35:36.293Z,2.28
2019-02-01T16:38:39.592Z,2.09
2019-02-01T16:41:42.520Z,2.28
2019-02-01T16:44:46.778Z,2.26
2019-02-01T16:47:49.826Z,2.13
2019-02-01T16:50:53.615Z,2.05
2019-02-01T16:53:56.785Z,2.00
2019-02-01T16:57:00.319Z,1.96
2019-02-01T17:00:07.715Z,2.00
2019-02-01T17:03:11.522Z,1.97
2019-02-01T17:06:14.439Z,1.84
2019-02-01T17:09:17.371Z,1.89
2019-02-01T17:12:20.377Z,1.81
2019-02-01T17:15:24.073Z,1.76
2019-02-01T17:18:27.678Z,1.79
2019-02-01T17:21:30.872Z,1.83
2019-02-01T17:24:34.180Z,1.74
2019-02-01T17:27:37.400Z,1.74
2019-02-01T17:30:43.914Z,1.81
2019-02-01T17:33:47.136Z,1.73
2019-02-01T17:36:50.036Z,1.80
2019-02-01T17:39:53.287Z,1.84
2019-02-01T17:42:56.192Z,1.77
2019-02-01T17:45:59.491Z,1.76
2019-02-01T17:49:03.203Z,1.64
2019-02-01T17:52:06.485Z,1.60
2019-02-01T17:55:10.282Z,1.61
2019-02-01T17:58:13.191Z,1.72
2019-02-01T18:01:16.183Z,1.70
2019-02-01T18:04:19.098Z,1.76
2019-02-01T18:07:22.431Z,1.75
2019-02-01T18:10:26.048Z,1.73
2019-02-01T18:13:28.951Z,1.67
2019-02-01T18:16:32.663Z,1.77
2019-02-01T18:19:36.870Z,1.74
2019-02-01T18:22:41.796Z,1.61
2019-02-01T18:25:47.267Z,1.68
2019-02-01T18:28:52.460Z,1.67
2019-02-01T18:31:55.950Z,1.60
2019-02-01T18:34:58.817Z,1.61
2019-02-01T18:38:04.503Z,1.60
2019-02-01T18:41:08.546Z,1.61
2019-02-01T18:44:11.432Z,1.59
2019-02-01T18:47:14.322Z,1.51
2019-02-01T18:50:20.191Z,1.55
2019-02-01T18:53:23.068Z,1.53
2019-02-01T18:56:25.928Z,1.50
2019-02-01T18:59:29.506Z,1.53
2019-02-01T19:02:32.363Z,1.67
2019-02-01T19:05:35.643Z,1.60
2019-02-01T19:08:39.294Z,1.56
2019-02-01T19:11:43.194Z,1.63
2019-02-01T19:14:59.203Z,1.63
2019-02-01T19:18:02.063Z,1.56
2019-02-01T19:21:04.950Z,1.50
2019-02-01T19:24:07.826Z,1.58
2019-02-01T19:27:11.972Z,1.49
2019-02-01T19:30:29.357Z,1.57
2019-02-01T19:33:32.562Z,1.58
2019-02-01T19:36:35.442Z,1.52
2019-02-01T19:39:38.302Z,1.53
2019-02-01T19:42:41.572Z,1.58
2019-02-01T19:45:44.562Z,1.64
2019-02-01T19:48:47.556Z,1.57
2019-02-01T19:51:50.898Z,1.58
2019-02-01T19:54:54.425Z,1.60
2019-02-01T19:57:57.564Z,1.60
2019-02-01T20:01:00.425Z,1.59
2019-02-01T20:04:05.876Z,1.56
2019-02-01T20:07:08.823Z,1.57
2019-02-01T20:10:19.273Z,1.57
2019-02-01T20:13:22.170Z,1.53
2019-02-01T20:16:25.117Z,1.45
2019-02-01T20:19:28.407Z,1.70
2019-02-01T20:22:31.715Z,1.66
2019-02-01T20:25:34.652Z,1.62
2019-02-01T20:28:39.954Z,1.64
2019-02-01T20:31:43.235Z,1.62
2019-02-01T20:34:46.164Z,1.71
2019-02-01T20:37:49.398Z,1.61
2019-02-01T20:40:54.722Z,1.53
2019-02-01T20:43:59.743Z,1.59
2019-02-01T20:47:02.974Z,1.61
2019-02-01T20:50:10.785Z,1.46
2019-02-01T20:53:15.752Z,1.45
2019-02-01T20:56:20.350Z,1.44
2019-02-01T20:59:23.352Z,1.57
2019-02-01T21:02:26.491Z,1.48
2019-02-01T21:05:30.832Z,1.79
2019-02-01T21:08:34.898Z,1.68
2019-02-01T21:11:37.778Z,1.51
2019-02-01T21:14:41.398Z,1.52
2019-02-01T21:17:44.713Z,1.62
2019-02-01T21:20:47.577Z,1.71
2019-02-01T21:23:50.462Z,1.64
2019-02-01T21:26:53.610Z,1.67
2019-02-01T21:29:56.830Z,1.58
2019-02-01T21:32:59.829Z,1.66
2019-02-01T21:36:03.036Z,1.79
2019-02-01T21:39:07.608Z,1.90
2019-02-01T21:42:12.718Z,1.91
2019-02-01T21:45:16.869Z,1.61
2019-02-01T21:48:20.155Z,1.52
2019-02-01T21:51:23.146Z,1.49
2019-02-01T21:54:27.809Z,1.61
2019-02-01T21:57:30.681Z,1.67
2019-02-01T22:00:33.674Z,1.80
2019-02-01T22:03:36.583Z,1.89
2019-02-01T22:06:39.458Z,1.62
2019-02-01T22:09:42.541Z,1.52
2019-02-01T22:12:45.418Z,1.56
2019-02-01T22:15:48.335Z,1.48
2019-02-01T22:18:51.553Z,1.57
2019-02-01T22:21:54.460Z,1.55
2019-02-01T22:24:57.725Z,1.54
2019-02-01T22:28:01.001Z,1.68
2019-02-01T22:31:04.248Z,1.79
2019-02-01T22:34:07.217Z,1.85
2019-02-01T22:37:10.099Z,1.88
2019-02-01T22:40:15.753Z,1.75
2019-02-01T22:43:18.754Z,1.67
2019-02-01T22:46:21.760Z,1.57
2019-02-01T22:49:24.761Z,1.61
2019-02-01T22:52:27.658Z,1.58
2019-02-01T22:55:30.903Z,1.61
2019-02-01T22:58:33.800Z,1.64
2019-02-01T23:01:49.030Z,1.67
2019-02-01T23:04:55.155Z,1.67
2019-02-01T23:07:58.048Z,1.69
2019-02-01T23:11:01.206Z,1.65
2019-02-01T23:14:05.396Z,1.68
2019-02-01T23:17:08.295Z,1.59
2019-02-01T23:20:12.505Z,1.83
2019-02-01T23:23:16.045Z,1.93
2019-02-01T23:26:19.622Z,1.76
2019-02-01T23:29:22.511Z,1.65
2019-02-01T23:32:25.481Z,1.57
2019-02-01T23:35:28.725Z,1.75
2019-02-01T23:38:32.193Z,1.94
2019-02-01T23:41:35.190Z,2.01
2019-02-01T23:44:38.654Z,1.99
2019-02-01T23:47:42.649Z,1.96
2019-02-01T23:50:45.877Z,1.99
2019-02-01T23:53:49.194Z,2.01
2019-02-01T23:56:52.382Z,2.04
2019-02-01T23:59:55.568Z,2.06
